Terminal Aerodrome Forecast
Issued by NWS

Home | Current Version | Previous Version | Text Only | Print | Product List | Glossary On
Versions: 1 2 3 4 5 6 7 8 9 10 11 12 13 14 15 16 17 18 19 20 21 22 23 24 25 26 27 28 29
000
FTAK31 PAFA 281729
TAFAOT
TAF
PAOT 281729Z 2818/2918 VRB03KT 1/4SM FZFG VV002
      TEMPO 2819/2820 1 1/2SM BR SCT002 BKN025
     FM282000 28008KT P6SM SCT025 BKN100
     FM290200 30008KT P6SM SCT050 BKN100
     FM291000 35005KT P6SM FEW050 SCT100=

USA.gov is the U.S. government's official web portal to all federal, state and local government web resources and services.